createdAt,value
2022-11-29T00:01:32.668Z,37.73
2022-11-29T00:04:00.379Z,36.90
2022-11-29T00:06:29.493Z,33.77
2022-11-29T00:08:57.934Z,34.43
2022-11-29T00:11:45.862Z,37.17
2022-11-29T00:14:15.381Z,40.03
2022-11-29T00:16:43.568Z,38.33
2022-11-29T00:19:11.961Z,32.87
2022-11-29T00:21:38.940Z,38.20
2022-11-29T00:24:06.351Z,35.57
2022-11-29T00:26:32.810Z,41.43
2022-11-29T00:28:59.267Z,35.40
2022-11-29T00:31:32.555Z,33.80
2022-11-29T00:34:01.657Z,36.90
2022-11-29T00:36:29.062Z,33.40
2022-11-29T00:38:56.274Z,33.60
2022-11-29T00:41:23.056Z,31.73
2022-11-29T00:43:49.554Z,44.23
2022-11-29T00:46:16.213Z,47.07
2022-11-29T00:48:42.745Z,49.83
2022-11-29T00:51:09.564Z,42.43
2022-11-29T00:53:36.924Z,39.13
2022-11-29T00:56:04.604Z,34.90
2022-11-29T00:58:31.370Z,36.73
2022-11-29T01:00:58.106Z,33.97
2022-11-29T01:03:24.938Z,34.73
2022-11-29T01:05:52.218Z,38.50
2022-11-29T01:08:19.114Z,30.43
2022-11-29T01:10:45.682Z,30.00
2022-11-29T01:13:12.123Z,32.83
2022-11-29T01:15:38.649Z,37.17
2022-11-29T01:18:05.637Z,34.20
2022-11-29T01:20:32.143Z,33.97
2022-11-29T01:22:58.986Z,38.07
2022-11-29T01:25:26.628Z,38.63
2022-11-29T01:27:54.309Z,36.70
2022-11-29T01:30:21.426Z,37.20
2022-11-29T01:32:48.024Z,42.23
2022-11-29T01:35:14.480Z,39.33
2022-11-29T01:37:41.137Z,43.67
2022-11-29T01:40:08.375Z,44.43
2022-11-29T01:42:34.866Z,39.77
2022-11-29T01:45:21.542Z,43.00
2022-11-29T01:47:52.664Z,43.83
2022-11-29T01:50:20.100Z,44.90
2022-11-29T01:52:48.281Z,45.70
2022-11-29T01:55:15.672Z,51.13
2022-11-29T01:57:44.187Z,47.87
2022-11-29T02:00:14.531Z,51.53
2022-11-29T02:02:45.661Z,57.10
2022-11-29T02:05:14.704Z,57.07
2022-11-29T02:07:46.128Z,54.70
2022-11-29T02:10:15.666Z,55.37
2022-11-29T02:12:51.436Z,69.53
2022-11-29T02:15:46.886Z,68.40
2022-11-29T02:18:21.975Z,71.40
2022-11-29T02:21:09.797Z,70.30
2022-11-29T02:24:09.728Z,71.73
2022-11-29T02:27:02.612Z,88.10
2022-11-29T02:29:32.199Z,80.80
2022-11-29T02:32:17.550Z,81.83
2022-11-29T02:35:21.222Z,72.40
2022-11-29T02:38:23.960Z,89.37
2022-11-29T02:41:12.219Z,89.33
2022-11-29T02:44:06.830Z,89.90
2022-11-29T02:47:10.503Z,78.90
2022-11-29T02:49:39.901Z,93.17
2022-11-29T02:52:32.487Z,101.33
2022-11-29T02:55:07.300Z,99.47
2022-11-29T02:57:47.487Z,93.83
2022-11-29T03:00:18.510Z,86.10
2022-11-29T03:02:51.304Z,83.90
2022-11-29T03:05:35.812Z,92.30
2022-11-29T03:08:24.463Z,105.60
2022-11-29T03:11:35.785Z,99.27
2022-11-29T03:14:37.841Z,110.17
2022-11-29T03:17:35.224Z,104.17
2022-11-29T03:20:24.095Z,114.43
2022-11-29T03:22:53.357Z,101.73
2022-11-29T03:25:29.745Z,98.60
2022-11-29T03:28:06.436Z,101.37
2022-11-29T03:30:38.430Z,107.53
2022-11-29T03:33:09.710Z,93.57
2022-11-29T03:35:39.221Z,97.83
2022-11-29T03:38:21.173Z,100.20
2022-11-29T03:41:01.240Z,108.13
2022-11-29T03:43:39.370Z,110.27
2022-11-29T03:46:16.011Z,109.50
2022-11-29T03:49:17.971Z,101.73
2022-11-29T03:52:19.070Z,96.80
2022-11-29T03:55:06.208Z,84.90
2022-11-29T03:58:11.065Z,96.13
2022-11-29T04:00:49.592Z,97.03
2022-11-29T04:03:43.315Z,91.97
2022-11-29T04:06:39.134Z,90.63
2022-11-29T04:09:21.010Z,85.17
2022-11-29T04:12:22.280Z,83.83
2022-11-29T04:15:22.790Z,91.53
2022-11-29T04:18:07.127Z,89.13
2022-11-29T04:20:52.303Z,93.83
2022-11-29T04:23:56.850Z,87.00
2022-11-29T04:26:58.771Z,89.47
2022-11-29T04:29:37.526Z,94.70
2022-11-29T04:32:23.638Z,96.43
2022-11-29T04:35:02.745Z,91.23
2022-11-29T04:37:50.135Z,86.20
2022-11-29T04:40:37.394Z,92.77
2022-11-29T04:43:09.994Z,95.77
2022-11-29T04:45:49.513Z,88.73
2022-11-29T04:48:18.735Z,87.30
2022-11-29T04:51:16.628Z,87.60
2022-11-29T04:53:52.041Z,91.43
2022-11-29T04:56:40.673Z,91.40
2022-11-29T04:59:25.738Z,87.00
2022-11-29T05:02:51.395Z,80.90
2022-11-29T05:05:29.717Z,76.20
2022-11-29T05:08:17.849Z,75.30
2022-11-29T05:10:56.557Z,68.40
2022-11-29T05:13:40.815Z,82.17
2022-11-29T05:16:15.408Z,84.13
2022-11-29T05:18:58.204Z,70.30
2022-11-29T05:21:49.601Z,80.53
2022-11-29T05:24:37.947Z,80.73
2022-11-29T05:27:13.593Z,82.83
2022-11-29T05:29:49.901Z,86.27
2022-11-29T05:32:53.804Z,93.00
2022-11-29T05:36:06.941Z,77.20
2022-11-29T05:38:39.362Z,99.07
2022-11-29T05:41:31.948Z,86.00
2022-11-29T05:44:24.459Z,87.97
2022-11-29T05:46:51.020Z,76.50
2022-11-29T05:49:33.692Z,84.37
2022-11-29T05:52:24.604Z,77.33
2022-11-29T05:55:22.314Z,90.27
2022-11-29T05:58:04.455Z,114.57
2022-11-29T06:00:49.152Z,90.57
2022-11-29T06:03:37.155Z,92.87
2022-11-29T06:06:20.377Z,81.20
2022-11-29T06:08:55.602Z,105.63
2022-11-29T06:11:31.357Z,94.20
2022-11-29T06:14:08.615Z,79.63
2022-11-29T06:17:20.377Z,87.80
2022-11-29T06:20:04.290Z,69.60
2022-11-29T06:22:30.889Z,77.57
2022-11-29T06:25:17.596Z,80.60
2022-11-29T06:28:08.502Z,82.57
2022-11-29T06:31:03.529Z,84.90
2022-11-29T06:33:41.023Z,89.93
2022-11-29T06:36:28.472Z,78.37
2022-11-29T06:38:55.172Z,78.63
2022-11-29T06:41:23.696Z,77.90
2022-11-29T06:43:51.159Z,71.03
2022-11-29T06:46:39.122Z,78.33
2022-11-29T06:49:25.180Z,97.33
2022-11-29T06:52:14.300Z,76.50
2022-11-29T06:54:53.031Z,84.37
2022-11-29T06:57:36.836Z,82.33
2022-11-29T07:00:15.283Z,95.90
2022-11-29T07:02:52.697Z,87.07
2022-11-29T07:05:33.989Z,84.43
2022-11-29T07:08:07.118Z,87.53
2022-11-29T07:10:36.145Z,87.27
2022-11-29T07:13:03.105Z,81.50
2022-11-29T07:15:29.927Z,78.50
2022-11-29T07:18:27.292Z,76.20
2022-11-29T07:20:59.531Z,91.90
2022-11-29T07:23:43.184Z,77.10
2022-11-29T07:26:30.962Z,79.17
2022-11-29T07:29:35.969Z,83.20
2022-11-29T07:32:02.873Z,95.23
2022-11-29T07:34:38.232Z,94.83
2022-11-29T07:37:24.094Z,92.80
2022-11-29T07:40:03.764Z,91.47
2022-11-29T07:42:48.537Z,80.90
2022-11-29T07:45:28.728Z,83.80
2022-11-29T07:47:55.695Z,80.27
2022-11-29T07:50:22.375Z,88.27
2022-11-29T07:52:49.129Z,85.13
2022-11-29T07:55:19.449Z,75.23
2022-11-29T07:57:46.591Z,80.17
2022-11-29T08:00:14.005Z,83.00
2022-11-29T08:02:41.382Z,75.87
2022-11-29T08:05:08.879Z,74.63
2022-11-29T08:07:37.296Z,81.70
2022-11-29T08:10:10.204Z,75.43
2022-11-29T08:12:36.869Z,80.43
2022-11-29T08:15:03.584Z,85.93
2022-11-29T08:17:30.272Z,84.27
2022-11-29T08:20:01.187Z,87.37
2022-11-29T08:22:30.633Z,84.63
2022-11-29T08:24:58.073Z,102.20
2022-11-29T08:27:24.512Z,86.23
2022-11-29T08:29:51.021Z,84.57
2022-11-29T08:32:17.620Z,87.33
2022-11-29T08:34:44.608Z,84.17
2022-11-29T08:37:12.000Z,91.47
2022-11-29T08:39:38.431Z,101.10
2022-11-29T08:42:05.003Z,78.10
2022-11-29T08:44:31.530Z,87.87
2022-11-29T08:47:16.686Z,94.90
2022-11-29T08:50:01.343Z,79.97
2022-11-29T08:52:54.168Z,84.03
2022-11-29T08:55:22.715Z,83.00
2022-11-29T08:57:50.449Z,79.00
2022-11-29T09:00:18.751Z,75.20
2022-11-29T09:02:45.230Z,69.53
2022-11-29T09:05:12.000Z,69.60
2022-11-29T09:07:38.938Z,65.90
2022-11-29T09:10:08.387Z,88.10
2022-11-29T09:12:36.366Z,86.57
2022-11-29T09:15:09.038Z,72.33
2022-11-29T09:17:35.547Z,69.93
2022-11-29T09:20:02.111Z,73.47
2022-11-29T09:22:28.678Z,75.40
2022-11-29T09:24:55.147Z,73.63
2022-11-29T09:27:21.615Z,70.43
2022-11-29T09:29:48.089Z,66.93
2022-11-29T09:32:14.586Z,71.00
2022-11-29T09:34:42.408Z,58.00
2022-11-29T09:37:09.607Z,80.60
2022-11-29T09:39:36.133Z,84.47
2022-11-29T09:42:09.707Z,75.63
2022-11-29T09:45:01.897Z,81.57
2022-11-29T09:48:13.983Z,65.87
2022-11-29T09:50:48.621Z,69.60
2022-11-29T09:53:21.164Z,67.03
2022-11-29T09:56:04.902Z,65.80
2022-11-29T09:58:41.719Z,59.73
2022-11-29T10:01:13.140Z,59.40
2022-11-29T10:03:47.057Z,50.77
2022-11-29T10:06:13.455Z,60.77
2022-11-29T10:08:53.748Z,58.30
2022-11-29T10:11:35.310Z,58.63
2022-11-29T10:14:11.994Z,49.23
2022-11-29T10:16:49.506Z,65.73
2022-11-29T10:19:21.447Z,57.73
2022-11-29T10:22:00.836Z,67.60
2022-11-29T10:24:29.338Z,60.17
2022-11-29T10:26:55.923Z,59.67
2022-11-29T10:29:23.323Z,58.03
2022-11-29T10:31:49.860Z,54.33
2022-11-29T10:34:20.044Z,68.43
2022-11-29T10:36:49.533Z,60.67
2022-11-29T10:39:29.854Z,59.30
2022-11-29T10:42:00.402Z,62.23
2022-11-29T10:44:27.412Z,59.30
2022-11-29T10:46:56.251Z,55.97
2022-11-29T10:49:27.800Z,61.47
2022-11-29T10:51:54.464Z,56.57
2022-11-29T10:54:41.872Z,56.23
2022-11-29T10:57:18.250Z,56.77
2022-11-29T11:00:11.784Z,53.07
2022-11-29T11:02:38.534Z,52.20
2022-11-29T11:05:18.553Z,60.87
2022-11-29T11:07:47.484Z,63.73
2022-11-29T11:10:27.628Z,48.00
2022-11-29T11:13:20.881Z,62.63
2022-11-29T11:15:47.665Z,55.50
2022-11-29T11:18:22.781Z,59.93
2022-11-29T11:20:58.915Z,62.53
2022-11-29T11:23:56.618Z,62.43
2022-11-29T11:26:24.158Z,59.30
2022-11-29T11:28:56.570Z,50.63
2022-11-29T11:31:35.578Z,57.43
2022-11-29T11:34:23.908Z,52.17
2022-11-29T11:36:50.405Z,55.57
2022-11-29T11:39:23.933Z,56.13
2022-11-29T11:42:10.409Z,61.27
2022-11-29T11:44:58.044Z,61.53
2022-11-29T11:47:35.815Z,63.63
2022-11-29T11:50:02.360Z,58.70
2022-11-29T11:52:30.625Z,58.57
2022-11-29T11:55:19.197Z,58.93
2022-11-29T11:57:45.727Z,58.37
2022-11-29T12:01:02.948Z,58.53
2022-11-29T12:03:43.958Z,64.67
2022-11-29T12:06:31.827Z,61.97
2022-11-29T12:09:04.948Z,67.00
2022-11-29T12:11:41.988Z,62.57
2022-11-29T12:14:18.840Z,56.43
2022-11-29T12:16:49.020Z,60.47
2022-11-29T12:19:23.448Z,58.53
2022-11-29T12:21:56.578Z,66.00
2022-11-29T12:24:34.329Z,66.23
2022-11-29T12:27:04.804Z,61.03
2022-11-29T12:29:34.491Z,67.60
2022-11-29T12:32:04.078Z,61.07
2022-11-29T12:34:36.426Z,59.07
2022-11-29T12:37:19.211Z,56.73
2022-11-29T12:39:57.406Z,53.03
2022-11-29T12:42:42.320Z,65.97
2022-11-29T12:45:17.830Z,52.20
2022-11-29T12:48:10.234Z,56.73
2022-11-29T12:50:51.873Z,51.93
2022-11-29T12:53:42.247Z,56.03
2022-11-29T12:56:15.990Z,54.37
2022-11-29T12:59:21.251Z,57.60
2022-11-29T13:02:18.637Z,59.77
2022-11-29T13:05:03.349Z,55.27
2022-11-29T13:07:38.376Z,60.07
2022-11-29T13:10:29.863Z,61.23
2022-11-29T13:13:04.892Z,57.00
2022-11-29T13:15:42.673Z,53.33
2022-11-29T13:18:35.661Z,63.43
2022-11-29T13:21:12.835Z,57.90
2022-11-29T13:26:30.198Z,53.20
2022-11-29T13:28:58.073Z,52.23
2022-11-29T13:31:25.630Z,53.93
2022-11-29T13:34:10.489Z,56.07
2022-11-29T13:36:45.986Z,55.00
2022-11-29T13:39:25.081Z,60.37
2022-11-29T13:41:58.805Z,61.97
2022-11-29T13:45:17.069Z,55.27
2022-11-29T13:47:55.558Z,57.00
2022-11-29T13:50:40.139Z,55.63
2022-11-29T13:53:13.546Z,57.63
2022-11-29T13:56:01.932Z,61.67
2022-11-29T13:58:28.400Z,58.10
2022-11-29T14:01:01.450Z,55.80
2022-11-29T14:03:29.917Z,55.77
2022-11-29T14:06:02.465Z,56.97
2022-11-29T14:08:48.029Z,63.50
2022-11-29T14:11:32.048Z,53.10
2022-11-29T14:14:04.777Z,44.57
2022-11-29T14:16:43.466Z,45.23
2022-11-29T14:19:13.075Z,55.33
2022-11-29T14:22:07.349Z,49.87
2022-11-29T14:24:36.960Z,48.37
2022-11-29T14:27:06.443Z,42.40
2022-11-29T14:29:56.092Z,44.47
2022-11-29T14:32:29.272Z,43.90
2022-11-29T14:35:10.721Z,45.67
2022-11-29T14:37:40.288Z,46.40
2022-11-29T14:40:42.365Z,41.93
2022-11-29T14:43:24.797Z,43.17
2022-11-29T14:46:10.321Z,39.57
2022-11-29T14:48:38.242Z,42.03
2022-11-29T14:51:12.574Z,39.33
2022-11-29T14:53:41.351Z,49.10
2022-11-29T14:56:29.621Z,40.67
2022-11-29T14:59:33.579Z,40.13
2022-11-29T15:02:05.116Z,39.93
2022-11-29T15:04:35.413Z,43.10
2022-11-29T15:07:03.048Z,40.30
2022-11-29T15:09:32.495Z,47.20
2022-11-29T15:12:03.256Z,43.13
2022-11-29T15:14:37.614Z,41.83
2022-11-29T15:17:30.537Z,44.43
2022-11-29T15:20:27.440Z,46.43
2022-11-29T15:22:58.381Z,47.53
2022-11-29T15:25:28.366Z,40.10
2022-11-29T15:27:56.023Z,43.03
2022-11-29T15:30:30.795Z,47.97
2022-11-29T15:32:59.797Z,43.93
2022-11-29T15:35:26.926Z,40.20
2022-11-29T15:37:54.394Z,47.40
2022-11-29T15:40:23.538Z,43.53
2022-11-29T15:43:12.347Z,36.47
2022-11-29T15:45:39.886Z,38.43
2022-11-29T15:48:21.461Z,48.97
2022-11-29T15:50:53.600Z,40.03
2022-11-29T15:53:25.589Z,42.17
2022-11-29T15:55:57.134Z,38.87
2022-11-29T15:58:26.094Z,45.53
2022-11-29T16:00:53.443Z,38.63
2022-11-29T16:03:33.215Z,39.43
2022-11-29T16:06:08.388Z,35.47
2022-11-29T16:08:40.532Z,37.33
2022-11-29T16:11:12.150Z,40.17
2022-11-29T16:13:40.459Z,47.00
2022-11-29T16:16:16.348Z,42.23
2022-11-29T16:18:45.209Z,42.80
2022-11-29T16:21:26.078Z,39.37
2022-11-29T16:23:53.562Z,42.20
2022-11-29T16:26:29.022Z,44.37
2022-11-29T16:28:59.096Z,44.50
2022-11-29T16:31:35.743Z,47.77
2022-11-29T16:34:18.427Z,42.30
2022-11-29T16:36:44.924Z,44.87
2022-11-29T16:39:24.457Z,41.43
2022-11-29T16:42:12.387Z,40.60
2022-11-29T16:44:45.314Z,38.73
2022-11-29T16:47:22.467Z,41.07
2022-11-29T16:50:07.555Z,40.17
2022-11-29T16:52:34.225Z,39.37
2022-11-29T16:55:01.091Z,46.77
2022-11-29T16:57:29.234Z,36.93
2022-11-29T16:59:55.711Z,42.47
2022-11-29T17:02:22.954Z,45.07
2022-11-29T17:04:51.035Z,35.33
2022-11-29T17:07:29.651Z,39.50
2022-11-29T17:09:57.001Z,34.50
2022-11-29T17:12:24.469Z,43.60
2022-11-29T17:14:51.026Z,43.03
2022-11-29T17:17:19.097Z,36.50
2022-11-29T17:19:45.871Z,41.30
2022-11-29T17:22:12.502Z,38.63
2022-11-29T17:24:44.756Z,34.33
2022-11-29T17:27:14.458Z,44.90
2022-11-29T17:29:40.935Z,42.77
2022-11-29T17:32:07.437Z,41.13
2022-11-29T17:34:34.020Z,39.27
2022-11-29T17:37:00.566Z,41.73
2022-11-29T17:39:26.988Z,45.53
2022-11-29T17:41:53.524Z,45.03
2022-11-29T17:44:19.994Z,40.27
2022-11-29T17:46:46.621Z,44.53
2022-11-29T17:49:13.354Z,48.43
2022-11-29T17:51:51.797Z,40.80
2022-11-29T17:54:19.131Z,42.67
2022-11-29T17:56:45.590Z,49.33
2022-11-29T17:59:12.097Z,44.10
2022-11-29T18:01:38.635Z,39.40
2022-11-29T18:04:06.090Z,53.47
2022-11-29T18:06:38.435Z,42.53
2022-11-29T18:09:07.639Z,43.13
2022-11-29T18:11:47.453Z,42.33
2022-11-29T18:14:18.215Z,43.07
2022-11-29T18:16:45.758Z,43.97
2022-11-29T18:19:18.250Z,44.00
2022-11-29T18:21:44.878Z,39.37
2022-11-29T18:24:11.959Z,40.10
2022-11-29T18:26:39.132Z,47.10
2022-11-29T18:29:06.589Z,39.93
2022-11-29T18:31:36.168Z,38.40
2022-11-29T18:34:09.750Z,44.27
2022-11-29T18:36:40.268Z,43.20
2022-11-29T18:39:09.124Z,39.27
2022-11-29T18:41:36.581Z,43.57
2022-11-29T18:44:08.634Z,48.83
2022-11-29T18:46:37.483Z,48.67
2022-11-29T18:49:06.616Z,53.60
2022-11-29T18:51:34.576Z,53.23
2022-11-29T18:54:01.527Z,46.80
2022-11-29T18:56:31.123Z,48.83
2022-11-29T18:59:00.042Z,46.33
2022-11-29T19:01:29.285Z,46.97
2022-11-29T19:03:58.855Z,43.87
2022-11-29T19:06:29.397Z,38.70
2022-11-29T19:09:00.874Z,39.07
2022-11-29T19:11:29.698Z,35.93
2022-11-29T19:14:04.379Z,37.50
2022-11-29T19:16:33.754Z,59.80
2022-11-29T19:19:01.181Z,38.03
2022-11-29T19:21:30.083Z,39.33
2022-11-29T19:23:59.224Z,35.20
2022-11-29T19:26:27.871Z,35.13
2022-11-29T19:28:55.122Z,41.67
2022-11-29T19:31:27.385Z,43.20
2022-11-29T19:33:55.551Z,35.73
2022-11-29T19:36:30.561Z,38.47
2022-11-29T19:38:59.652Z,34.93
2022-11-29T19:41:29.313Z,38.37
2022-11-29T19:43:57.575Z,34.80
2022-11-29T19:46:27.130Z,37.07
2022-11-29T19:48:55.647Z,36.17
2022-11-29T19:51:22.941Z,38.37
2022-11-29T19:53:53.618Z,38.57
2022-11-29T19:56:23.644Z,41.50
2022-11-29T19:58:50.844Z,39.33
2022-11-29T20:01:18.716Z,38.00
2022-11-29T20:03:45.926Z,39.63
2022-11-29T20:06:13.675Z,36.03
2022-11-29T20:08:41.113Z,36.27
2022-11-29T20:11:13.318Z,34.47
2022-11-29T20:13:41.421Z,36.30
2022-11-29T20:16:13.836Z,36.93
2022-11-29T20:18:48.802Z,39.03
2022-11-29T20:21:31.835Z,33.40
2022-11-29T20:24:04.315Z,39.30
2022-11-29T20:26:32.979Z,38.37
2022-11-29T20:29:00.158Z,39.17
2022-11-29T20:31:26.667Z,34.60
2022-11-29T20:33:55.131Z,42.83
2022-11-29T20:36:32.968Z,37.17
2022-11-29T20:39:11.529Z,40.37
2022-11-29T20:41:46.470Z,38.47
2022-11-29T20:44:38.714Z,44.73
2022-11-29T20:47:17.962Z,41.83
2022-11-29T20:49:46.973Z,46.97
2022-11-29T20:52:25.805Z,46.60
2022-11-29T20:54:52.417Z,49.73
2022-11-29T20:57:18.837Z,51.87
2022-11-29T20:59:45.635Z,43.70
2022-11-29T21:02:12.775Z,52.07
2022-11-29T21:04:39.456Z,49.57
2022-11-29T21:07:05.895Z,54.77
2022-11-29T21:09:32.371Z,57.53
2022-11-29T21:11:59.282Z,54.40
2022-11-29T21:14:26.050Z,56.90
2022-11-29T21:16:52.772Z,56.47
2022-11-29T21:19:24.691Z,55.50
2022-11-29T21:22:15.447Z,55.40
2022-11-29T21:24:53.042Z,56.10
2022-11-29T21:27:26.899Z,53.50
2022-11-29T21:29:53.726Z,51.67
2022-11-29T21:32:25.383Z,59.90
2022-11-29T21:34:52.245Z,60.47
2022-11-29T21:37:22.696Z,59.07
2022-11-29T21:39:51.729Z,57.20
2022-11-29T21:42:18.631Z,58.00
2022-11-29T21:44:45.644Z,60.73
2022-11-29T21:47:12.736Z,69.43
2022-11-29T21:49:39.618Z,71.33
2022-11-29T21:52:06.751Z,69.30
2022-11-29T21:54:33.671Z,73.50
2022-11-29T21:57:00.139Z,65.83
2022-11-29T21:59:28.051Z,64.47
2022-11-29T22:01:55.113Z,61.03
2022-11-29T22:04:22.066Z,57.53
2022-11-29T22:06:48.577Z,63.27
2022-11-29T22:09:15.075Z,74.07
2022-11-29T22:11:41.586Z,60.60
2022-11-29T22:14:16.459Z,61.17
2022-11-29T22:16:43.932Z,52.03
2022-11-29T22:19:14.363Z,60.10
2022-11-29T22:21:42.313Z,67.40
2022-11-29T22:24:10.423Z,75.77
2022-11-29T22:26:37.775Z,65.37
2022-11-29T22:29:05.240Z,56.27
2022-11-29T22:31:32.023Z,53.30
2022-11-29T22:33:59.030Z,57.17
2022-11-29T22:36:25.630Z,61.77
2022-11-29T22:38:52.121Z,57.23
2022-11-29T22:41:18.773Z,58.57
2022-11-29T22:43:45.577Z,59.63
2022-11-29T22:46:17.936Z,56.13
2022-11-29T22:48:46.284Z,57.73
2022-11-29T22:51:15.333Z,52.90
2022-11-29T22:53:48.275Z,56.20
2022-11-29T22:56:14.984Z,58.63
2022-11-29T22:58:41.632Z,56.20
2022-11-29T23:01:16.776Z,54.87
2022-11-29T23:03:46.264Z,56.63
2022-11-29T23:06:17.511Z,54.90
2022-11-29T23:08:46.240Z,50.07
2022-11-29T23:11:15.366Z,51.90
2022-11-29T23:13:43.839Z,50.87
2022-11-29T23:16:13.882Z,50.77
2022-11-29T23:18:42.318Z,49.60
2022-11-29T23:21:27.376Z,51.03
2022-11-29T23:23:56.789Z,56.70
2022-11-29T23:26:26.434Z,50.43
2022-11-29T23:28:54.453Z,47.80
2022-11-29T23:31:21.775Z,54.40
2022-11-29T23:33:48.380Z,52.60
2022-11-29T23:36:16.377Z,58.97
2022-11-29T23:38:43.551Z,57.03
2022-11-29T23:41:10.839Z,58.47
2022-11-29T23:43:38.883Z,59.10
2022-11-29T23:46:12.194Z,60.53
2022-11-29T23:48:38.966Z,60.40
2022-11-29T23:51:05.794Z,69.90
2022-11-29T23:53:33.107Z,62.87
2022-11-29T23:56:04.569Z,59.70
2022-11-29T23:58:31.645Z,60.50
